sensor_id;sensor_type;location;lat;lon;timestamp;pressure;altitude;pressure_sealevel;temperature;humidity
29505;BME280;16452;54.174;12.092;2023-02-11T00:00:11;102376.03;;;7.38;100.00
29505;BME280;16452;54.174;12.092;2023-02-11T00:02:37;102383.03;;;7.31;100.00
29505;BME280;16452;54.174;12.092;2023-02-11T00:05:04;102366.38;;;7.51;100.00
29505;BME280;16452;54.174;12.092;2023-02-11T00:07:31;102372.66;;;7.33;100.00
29505;BME280;16452;54.174;12.092;2023-02-11T00:09:57;102382.09;;;7.38;100.00
29505;BME280;16452;54.174;12.092;2023-02-11T00:12:24;102378.56;;;7.41;100.00
29505;BME280;16452;54.174;12.092;2023-02-11T00:14:51;102387.22;;;7.41;100.00
29505;BME280;16452;54.174;12.092;2023-02-11T00:17:16;102388.16;;;7.34;100.00
29505;BME280;16452;54.174;12.092;2023-02-11T00:19:42;102380.31;;;7.40;100.00
29505;BME280;16452;54.174;12.092;2023-02-11T00:22:08;102388.06;;;7.43;100.00
29505;BME280;16452;54.174;12.092;2023-02-11T00:24:35;102383.91;;;7.30;100.00
29505;BME280;16452;54.174;12.092;2023-02-11T00:27:01;102387.34;;;7.32;100.00
29505;BME280;16452;54.174;12.092;2023-02-11T00:29:27;102376.28;;;7.17;100.00
29505;BME280;16452;54.174;12.092;2023-02-11T00:31:53;102379.66;;;7.23;100.00
29505;BME280;16452;54.174;12.092;2023-02-11T00:34:18;102370.09;;;7.28;100.00
29505;BME280;16452;54.174;12.092;2023-02-11T00:36:44;102370.94;;;7.29;100.00
29505;BME280;16452;54.174;12.092;2023-02-11T00:39:11;102369.00;;;7.46;100.00
29505;BME280;16452;54.174;12.092;2023-02-11T00:41:37;102368.13;;;7.47;100.00
29505;BME280;16452;54.174;12.092;2023-02-11T00:44:03;102363.06;;;7.38;100.00
29505;BME280;16452;54.174;12.092;2023-02-11T00:46:29;102363.72;;;7.54;100.00
29505;BME280;16452;54.174;12.092;2023-02-11T00:48:55;102350.97;;;7.37;100.00
29505;BME280;16452;54.174;12.092;2023-02-11T00:51:24;102347.31;;;7.52;100.00
29505;BME280;16452;54.174;12.092;2023-02-11T00:53:50;102366.75;;;7.20;100.00
29505;BME280;16452;54.174;12.092;2023-02-11T00:56:16;102367.53;;;7.27;100.00
29505;BME280;16452;54.174;12.092;2023-02-11T00:58:42;102378.47;;;7.50;100.00
29505;BME280;16452;54.174;12.092;2023-02-11T01:01:08;102385.56;;;7.36;100.00
29505;BME280;16452;54.174;12.092;2023-02-11T01:03:34;102378.63;;;7.38;100.00
29505;BME280;16452;54.174;12.092;2023-02-11T01:06:00;102382.00;;;7.45;100.00
29505;BME280;16452;54.174;12.092;2023-02-11T01:08:27;102387.91;;;7.54;100.00
29505;BME280;16452;54.174;12.092;2023-02-11T01:11:00;102384.28;;;7.67;100.00
29505;BME280;16452;54.174;12.092;2023-02-11T01:13:28;102388.69;;;7.61;100.00
29505;BME280;16452;54.174;12.092;2023-02-11T01:15:55;102387.97;;;7.50;100.00
29505;BME280;16452;54.174;12.092;2023-02-11T01:18:22;102380.81;;;7.68;100.00
29505;BME280;16452;54.174;12.092;2023-02-11T01:20:51;102370.53;;;7.62;100.00
29505;BME280;16452;54.174;12.092;2023-02-11T01:23:17;102363.34;;;7.79;100.00
29505;BME280;16452;54.174;12.092;2023-02-11T01:25:44;102352.38;;;7.61;100.00
29505;BME280;16452;54.174;12.092;2023-02-11T01:28:19;102336.72;;;7.68;100.00
29505;BME280;16452;54.174;12.092;2023-02-11T01:30:45;102340.25;;;7.63;100.00
29505;BME280;16452;54.174;12.092;2023-02-11T01:33:11;102338.47;;;7.66;100.00
29505;BME280;16452;54.174;12.092;2023-02-11T01:35:38;102323.84;;;7.62;100.00
29505;BME280;16452;54.174;12.092;2023-02-11T01:38:06;102308.31;;;7.58;100.00
29505;BME280;16452;54.174;12.092;2023-02-11T01:40:31;102313.47;;;7.61;100.00
29505;BME280;16452;54.174;12.092;2023-02-11T01:42:57;102300.63;;;7.53;100.00
29505;BME280;16452;54.174;12.092;2023-02-11T01:48:16;102291.88;;;7.62;100.00
29505;BME280;16452;54.174;12.092;2023-02-11T01:50:45;102303.84;;;7.69;100.00
29505;BME280;16452;54.174;12.092;2023-02-11T01:53:12;102288.66;;;7.45;100.00
29505;BME280;16452;54.174;12.092;2023-02-11T01:55:58;102298.91;;;7.52;100.00
29505;BME280;16452;54.174;12.092;2023-02-11T01:58:44;102292.94;;;7.47;100.00
29505;BME280;16452;54.174;12.092;2023-02-11T02:01:16;102291.69;;;7.74;100.00
29505;BME280;16452;54.174;12.092;2023-02-11T02:03:45;102284.78;;;7.71;100.00
29505;BME280;16452;54.174;12.092;2023-02-11T02:06:18;102282.88;;;7.82;100.00
29505;BME280;16452;54.174;12.092;2023-02-11T02:08:56;102286.53;;;7.71;100.00
29505;BME280;16452;54.174;12.092;2023-02-11T02:11:24;102292.22;;;7.39;100.00
29505;BME280;16452;54.174;12.092;2023-02-11T02:13:50;102309.94;;;7.66;100.00
29505;BME280;16452;54.174;12.092;2023-02-11T02:16:18;102308.19;;;7.68;100.00
29505;BME280;16452;54.174;12.092;2023-02-11T02:22:13;102310.72;;;7.71;100.00
29505;BME280;16452;54.174;12.092;2023-02-11T02:33:59;102311.91;;;7.51;100.00
29505;BME280;16452;54.174;12.092;2023-02-11T02:39:28;102312.84;;;7.45;100.00
29505;BME280;16452;54.174;12.092;2023-02-11T02:41:56;102315.22;;;7.59;100.00
29505;BME280;16452;54.174;12.092;2023-02-11T02:44:23;102320.31;;;7.68;100.00
29505;BME280;16452;54.174;12.092;2023-02-11T02:46:49;102315.31;;;7.53;100.00
29505;BME280;16452;54.174;12.092;2023-02-11T02:49:16;102316.97;;;7.58;100.00
29505;BME280;16452;54.174;12.092;2023-02-11T02:54:55;102333.09;;;7.80;100.00
29505;BME280;16452;54.174;12.092;2023-02-11T03:03:41;102304.75;;;7.68;100.00
29505;BME280;16452;54.174;12.092;2023-02-11T03:06:22;102295.28;;;7.64;100.00
29505;BME280;16452;54.174;12.092;2023-02-11T03:11:45;102291.59;;;7.78;100.00
29505;BME280;16452;54.174;12.092;2023-02-11T03:14:15;102278.44;;;7.91;100.00
29505;BME280;16452;54.174;12.092;2023-02-11T03:16:43;102252.88;;;7.68;100.00
29505;BME280;16452;54.174;12.092;2023-02-11T03:19:15;102252.88;;;7.66;100.00
29505;BME280;16452;54.174;12.092;2023-02-11T03:21:43;102244.13;;;7.73;100.00
29505;BME280;16452;54.174;12.092;2023-02-11T03:24:30;102247.91;;;7.53;100.00
29505;BME280;16452;54.174;12.092;2023-02-11T03:27:06;102239.91;;;7.66;100.00
29505;BME280;16452;54.174;12.092;2023-02-11T03:29:34;102233.81;;;7.69;100.00
29505;BME280;16452;54.174;12.092;2023-02-11T03:32:24;102226.66;;;7.84;100.00
29505;BME280;16452;54.174;12.092;2023-02-11T03:35:00;102237.03;;;7.83;100.00
29505;BME280;16452;54.174;12.092;2023-02-11T03:37:50;102236.09;;;7.87;100.00
29505;BME280;16452;54.174;12.092;2023-02-11T03:40:25;102238.47;;;8.01;100.00
29505;BME280;16452;54.174;12.092;2023-02-11T03:42:59;102259.31;;;7.95;100.00
29505;BME280;16452;54.174;12.092;2023-02-11T03:45:26;102256.25;;;7.71;100.00
29505;BME280;16452;54.174;12.092;2023-02-11T03:48:21;102264.72;;;7.81;100.00
29505;BME280;16452;54.174;12.092;2023-02-11T03:50:49;102253.66;;;7.71;100.00
29505;BME280;16452;54.174;12.092;2023-02-11T03:53:17;102262.03;;;7.87;100.00
29505;BME280;16452;54.174;12.092;2023-02-11T03:55:45;102274.00;;;7.97;100.00
29505;BME280;16452;54.174;12.092;2023-02-11T03:58:12;102271.72;;;7.77;100.00
29505;BME280;16452;54.174;12.092;2023-02-11T04:00:40;102283.94;;;7.69;100.00
29505;BME280;16452;54.174;12.092;2023-02-11T04:03:07;102285.16;;;8.02;100.00
29505;BME280;16452;54.174;12.092;2023-02-11T04:05:34;102279.22;;;7.96;100.00
29505;BME280;16452;54.174;12.092;2023-02-11T04:07:59;102280.88;;;7.98;100.00
29505;BME280;16452;54.174;12.092;2023-02-11T04:10:25;102276.59;;;7.97;100.00
29505;BME280;16452;54.174;12.092;2023-02-11T04:12:51;102271.41;;;7.97;100.00
29505;BME280;16452;54.174;12.092;2023-02-11T04:15:17;102266.22;;;7.97;100.00
29505;BME280;16452;54.174;12.092;2023-02-11T04:17:42;102265.19;;;8.06;100.00
29505;BME280;16452;54.174;12.092;2023-02-11T04:20:09;102252.97;;;8.12;100.00
29505;BME280;16452;54.174;12.092;2023-02-11T04:22:36;102251.19;;;8.14;100.00
29505;BME280;16452;54.174;12.092;2023-02-11T04:25:04;102247.84;;;8.08;100.00
29505;BME280;16452;54.174;12.092;2023-02-11T04:27:30;102245.34;;;8.03;100.00
29505;BME280;16452;54.174;12.092;2023-02-11T04:29:55;102246.19;;;8.04;100.00
29505;BME280;16452;54.174;12.092;2023-02-11T04:32:21;102244.19;;;8.18;100.00
29505;BME280;16452;54.174;12.092;2023-02-11T04:34:47;102236.41;;;8.19;100.00
29505;BME280;16452;54.174;12.092;2023-02-11T04:37:13;102235.53;;;8.19;100.00
29505;BME280;16452;54.174;12.092;2023-02-11T04:39:39;102230.31;;;8.20;100.00
29505;BME280;16452;54.174;12.092;2023-02-11T04:42:05;102238.06;;;8.22;100.00
29505;BME280;16452;54.174;12.092;2023-02-11T04:44:31;102234.88;;;8.08;100.00
29505;BME280;16452;54.174;12.092;2023-02-11T04:46:57;102238.13;;;8.19;100.00
29505;BME280;16452;54.174;12.092;2023-02-11T04:49:23;102226.69;;;8.31;100.00
29505;BME280;16452;54.174;12.092;2023-02-11T04:51:49;102218.03;;;8.30;100.00
29505;BME280;16452;54.174;12.092;2023-02-11T04:54:15;102204.28;;;8.23;100.00
29505;BME280;16452;54.174;12.092;2023-02-11T04:56:40;102197.47;;;8.19;100.00
29505;BME280;16452;54.174;12.092;2023-02-11T04:59:06;102179.94;;;8.32;100.00
29505;BME280;16452;54.174;12.092;2023-02-11T05:01:32;102174.22;;;8.13;100.00
29505;BME280;16452;54.174;12.092;2023-02-11T05:03:59;102181.59;;;8.35;100.00
29505;BME280;16452;54.174;12.092;2023-02-11T05:06:24;102188.75;;;8.22;100.00
29505;BME280;16452;54.174;12.092;2023-02-11T05:08:50;102179.19;;;8.24;100.00
29505;BME280;16452;54.174;12.092;2023-02-11T05:11:20;102181.69;;;8.29;100.00
29505;BME280;16452;54.174;12.092;2023-02-11T05:13:46;102175.94;;;8.13;100.00
29505;BME280;16452;54.174;12.092;2023-02-11T05:16:13;102176.69;;;8.19;100.00
29505;BME280;16452;54.174;12.092;2023-02-11T05:18:41;102175.63;;;8.31;100.00
29505;BME280;16452;54.174;12.092;2023-02-11T05:21:08;102178.84;;;8.44;100.00
29505;BME280;16452;54.174;12.092;2023-02-11T05:23:35;102176.31;;;8.39;100.00
29505;BME280;16452;54.174;12.092;2023-02-11T05:26:02;102178.91;;;8.39;100.00
29505;BME280;16452;54.174;12.092;2023-02-11T05:28:29;102174.63;;;8.38;100.00
29505;BME280;16452;54.174;12.092;2023-02-11T05:30:55;102187.31;;;8.52;100.00
29505;BME280;16452;54.174;12.092;2023-02-11T05:33:21;102162.41;;;8.43;100.00
29505;BME280;16452;54.174;12.092;2023-02-11T05:35:46;102163.31;;;8.39;100.00
29505;BME280;16452;54.174;12.092;2023-02-11T05:38:12;102153.34;;;8.19;100.00
29505;BME280;16452;54.174;12.092;2023-02-11T05:40:38;102182.47;;;8.35;100.00
29505;BME280;16452;54.174;12.092;2023-02-11T05:43:04;102177.59;;;8.17;100.00
29505;BME280;16452;54.174;12.092;2023-02-11T05:45:30;102174.75;;;8.29;100.00
29505;BME280;16452;54.174;12.092;2023-02-11T05:47:56;102167.59;;;8.43;100.00
29505;BME280;16452;54.174;12.092;2023-02-11T05:50:22;102150.16;;;8.50;100.00
29505;BME280;16452;54.174;12.092;2023-02-11T05:52:48;102164.91;;;8.46;100.00
29505;BME280;16452;54.174;12.092;2023-02-11T05:55:14;102193.38;;;8.51;100.00
29505;BME280;16452;54.174;12.092;2023-02-11T05:57:40;102192.41;;;8.56;100.00
29505;BME280;16452;54.174;12.092;2023-02-11T06:00:07;102191.63;;;8.53;100.00
29505;BME280;16452;54.174;12.092;2023-02-11T06:02:33;102192.41;;;8.56;100.00
29505;BME280;16452;54.174;12.092;2023-02-11T06:04:59;102197.47;;;8.62;100.00
29505;BME280;16452;54.174;12.092;2023-02-11T06:07:25;102188.75;;;8.67;100.00
29505;BME280;16452;54.174;12.092;2023-02-11T06:09:51;102202.47;;;8.73;100.00
29505;BME280;16452;54.174;12.092;2023-02-11T06:12:17;102207.09;;;8.57;100.00
29505;BME280;16452;54.174;12.092;2023-02-11T06:14:43;102200.16;;;8.59;100.00
29505;BME280;16452;54.174;12.092;2023-02-11T06:17:09;102197.53;;;8.61;100.00
29505;BME280;16452;54.174;12.092;2023-02-11T06:19:35;102191.13;;;8.76;100.00
29505;BME280;16452;54.174;12.092;2023-02-11T06:22:00;102178.38;;;8.65;100.00
29505;BME280;16452;54.174;12.092;2023-02-11T06:24:26;102165.50;;;8.60;100.00
29505;BME280;16452;54.174;12.092;2023-02-11T06:26:52;102176.66;;;8.64;100.00
29505;BME280;16452;54.174;12.092;2023-02-11T06:29:18;102179.22;;;8.67;100.00
29505;BME280;16452;54.174;12.092;2023-02-11T06:31:43;102173.03;;;8.73;100.00
29505;BME280;16452;54.174;12.092;2023-02-11T06:34:09;102183.56;;;8.65;100.00
29505;BME280;16452;54.174;12.092;2023-02-11T06:36:37;102181.84;;;8.64;100.00
29505;BME280;16452;54.174;12.092;2023-02-11T06:39:03;102184.34;;;8.69;100.00
29505;BME280;16452;54.174;12.092;2023-02-11T06:41:29;102192.22;;;8.65;100.00
29505;BME280;16452;54.174;12.092;2023-02-11T06:43:55;102187.00;;;8.67;100.00
29505;BME280;16452;54.174;12.092;2023-02-11T06:46:21;102195.97;;;8.51;100.00
29505;BME280;16452;54.174;12.092;2023-02-11T06:48:47;102214.88;;;8.57;100.00
29505;BME280;16452;54.174;12.092;2023-02-11T06:51:14;102220.03;;;8.60;100.00
29505;BME280;16452;54.174;12.092;2023-02-11T06:53:43;102223.78;;;8.46;100.00
29505;BME280;16452;54.174;12.092;2023-02-11T06:56:15;102220.78;;;8.67;100.00
29505;BME280;16452;54.174;12.092;2023-02-11T06:58:42;102227.03;;;8.57;100.00
29505;BME280;16452;54.174;12.092;2023-02-11T07:01:12;102231.41;;;8.55;100.00
29505;BME280;16452;54.174;12.092;2023-02-11T07:03:40;102227.25;;;8.46;100.00
29505;BME280;16452;54.174;12.092;2023-02-11T07:06:11;102225.13;;;8.65;100.00
29505;BME280;16452;54.174;12.092;2023-02-11T07:08:38;102211.25;;;8.68;100.00
29505;BME280;16452;54.174;12.092;2023-02-11T07:11:23;102219.06;;;8.66;100.00
29505;BME280;16452;54.174;12.092;2023-02-11T07:13:50;102223.66;;;8.52;100.00
29505;BME280;16452;54.174;12.092;2023-02-11T07:16:18;102237.41;;;8.57;100.00
29505;BME280;16452;54.174;12.092;2023-02-11T07:18:45;102240.63;;;8.70;100.00
29505;BME280;16452;54.174;12.092;2023-02-11T07:21:14;102236.38;;;8.65;100.00
29505;BME280;16452;54.174;12.092;2023-02-11T07:23:40;102240.09;;;8.52;100.00
29505;BME280;16452;54.174;12.092;2023-02-11T07:26:12;102229.75;;;8.51;100.00
29505;BME280;16452;54.174;12.092;2023-02-11T07:28:39;102227.22;;;8.48;100.00
29505;BME280;16452;54.174;12.092;2023-02-11T07:31:21;102233.06;;;8.59;100.00
29505;BME280;16452;54.174;12.092;2023-02-11T07:33:47;102234.53;;;8.72;100.00
29505;BME280;16452;54.174;12.092;2023-02-11T07:36:14;102230.25;;;8.68;100.00
29505;BME280;16452;54.174;12.092;2023-02-11T07:38:41;102236.63;;;8.95;100.00
29505;BME280;16452;54.174;12.092;2023-02-11T07:41:10;102241.16;;;8.85;100.00
29505;BME280;16452;54.174;12.092;2023-02-11T07:43:37;102254.88;;;8.92;100.00
29505;BME280;16452;54.174;12.092;2023-02-11T07:46:16;102263.50;;;8.94;100.00
29505;BME280;16452;54.174;12.092;2023-02-11T07:48:43;102275.63;;;8.95;100.00
29505;BME280;16452;54.174;12.092;2023-02-11T07:51:19;102244.09;;;9.08;100.00
29505;BME280;16452;54.174;12.092;2023-02-11T07:53:45;102237.53;;;8.92;100.00
29505;BME280;16452;54.174;12.092;2023-02-11T07:56:13;102241.81;;;8.95;100.00
29505;BME280;16452;54.174;12.092;2023-02-11T07:58:39;102239.00;;;9.05;100.00
29505;BME280;16452;54.174;12.092;2023-02-11T08:01:19;102241.56;;;9.07;100.00
29505;BME280;16452;54.174;12.092;2023-02-11T08:03:46;102254.78;;;8.96;100.00
29505;BME280;16452;54.174;12.092;2023-02-11T08:06:15;102261.66;;;8.99;100.00
29505;BME280;16452;54.174;12.092;2023-02-11T08:08:42;102277.00;;;9.11;100.00
29505;BME280;16452;54.174;12.092;2023-02-11T08:11:18;102274.38;;;9.11;100.00
29505;BME280;16452;54.174;12.092;2023-02-11T08:13:44;102265.63;;;9.15;100.00
29505;BME280;16452;54.174;12.092;2023-02-11T08:16:28;102274.50;;;9.06;100.00
29505;BME280;16452;54.174;12.092;2023-02-11T08:19:01;102265.00;;;9.04;100.00
29505;BME280;16452;54.174;12.092;2023-02-11T08:21:28;102253.69;;;9.06;100.00
29505;BME280;16452;54.174;12.092;2023-02-11T08:23:54;102255.44;;;9.06;100.00
29505;BME280;16452;54.174;12.092;2023-02-11T08:26:24;102274.38;;;9.11;100.00
29505;BME280;16452;54.174;12.092;2023-02-11T08:28:52;102282.06;;;9.16;100.00
29505;BME280;16452;54.174;12.092;2023-02-11T08:31:38;102267.44;;;9.12;100.00
29505;BME280;16452;54.174;12.092;2023-02-11T08:34:04;102247.63;;;9.07;100.00
29505;BME280;16452;54.174;12.092;2023-02-11T08:36:34;102250.97;;;9.13;100.00
29505;BME280;16452;54.174;12.092;2023-02-11T08:39:11;102249.13;;;9.16;100.00
29505;BME280;16452;54.174;12.092;2023-02-11T08:41:37;102269.69;;;9.27;100.00
29505;BME280;16452;54.174;12.092;2023-02-11T08:44:03;102279.78;;;9.40;100.00
29505;BME280;16452;54.174;12.092;2023-02-11T08:46:29;102266.03;;;9.37;100.00
29505;BME280;16452;54.174;12.092;2023-02-11T08:48:55;102269.47;;;9.37;100.00
29505;BME280;16452;54.174;12.092;2023-02-11T08:51:25;102269.41;;;9.39;100.00
29505;BME280;16452;54.174;12.092;2023-02-11T08:53:53;102292.19;;;9.29;100.00
29505;BME280;16452;54.174;12.092;2023-02-11T08:56:21;102291.78;;;9.47;100.00
29505;BME280;16452;54.174;12.092;2023-02-11T08:58:51;102309.50;;;9.30;100.00
29505;BME280;16452;54.174;12.092;2023-02-11T09:01:19;102296.19;;;9.44;100.00
29505;BME280;16452;54.174;12.092;2023-02-11T09:03:46;102303.94;;;9.47;100.00
29505;BME280;16452;54.174;12.092;2023-02-11T09:06:13;102296.97;;;9.49;100.00
29505;BME280;16452;54.174;12.092;2023-02-11T09:08:45;102307.97;;;9.60;100.00
29505;BME280;16452;54.174;12.092;2023-02-11T09:11:12;102298.63;;;9.50;100.00
29505;BME280;16452;54.174;12.092;2023-02-11T09:13:40;102308.00;;;9.59;100.00
29505;BME280;16452;54.174;12.092;2023-02-11T09:16:07;102295.19;;;9.49;100.00
29505;BME280;16452;54.174;12.092;2023-02-11T09:18:33;102292.13;;;9.69;100.00
29505;BME280;16452;54.174;12.092;2023-02-11T09:21:05;102293.88;;;9.69;100.00
29505;BME280;16452;54.174;12.092;2023-02-11T09:23:32;102285.19;;;9.68;100.00
29505;BME280;16452;54.174;12.092;2023-02-11T09:26:05;102283.19;;;9.79;100.00
29505;BME280;16452;54.174;12.092;2023-02-11T09:28:31;102289.22;;;9.81;100.00
29505;BME280;16452;54.174;12.092;2023-02-11T09:30:57;102286.75;;;9.77;100.00
29505;BME280;16452;54.174;12.092;2023-02-11T09:33:23;102278.81;;;9.81;100.00
29505;BME280;16452;54.174;12.092;2023-02-11T09:35:49;102260.44;;;9.87;100.00
29505;BME280;16452;54.174;12.092;2023-02-11T09:38:14;102251.63;;;9.93;100.00
29505;BME280;16452;54.174;12.092;2023-02-11T09:40:44;102253.94;;;10.04;100.00
29505;BME280;16452;54.174;12.092;2023-02-11T09:43:18;102262.91;;;9.94;100.00
29505;BME280;16452;54.174;12.092;2023-02-11T09:45:45;102280.00;;;10.04;100.00
29505;BME280;16452;54.174;12.092;2023-02-11T09:48:18;102256.09;;;9.88;100.00
29505;BME280;16452;54.174;12.092;2023-02-11T09:50:56;102249.94;;;9.90;100.00
29505;BME280;16452;54.174;12.092;2023-02-11T09:53:27;102247.91;;;9.68;100.00
29505;BME280;16452;54.174;12.092;2023-02-11T09:56:01;102267.97;;;9.64;100.00
29505;BME280;16452;54.174;12.092;2023-02-11T09:58:42;102273.78;;;9.74;100.00
29505;BME280;16452;54.174;12.092;2023-02-11T10:01:38;102269.63;;;9.67;100.00
29505;BME280;16452;54.174;12.092;2023-02-11T10:04:23;102278.34;;;9.66;100.00
29505;BME280;16452;54.174;12.092;2023-02-11T10:10:26;102303.00;;;9.85;100.00
29505;BME280;16452;54.174;12.092;2023-02-11T10:13:15;102319.50;;;9.85;100.00
29505;BME280;16452;54.174;12.092;2023-02-11T10:16:20;102326.41;;;9.86;100.00
29505;BME280;16452;54.174;12.092;2023-02-11T10:20:00;102328.00;;;9.92;100.00
29505;BME280;16452;54.174;12.092;2023-02-11T10:22:38;102337.25;;;10.04;100.00
29505;BME280;16452;54.174;12.092;2023-02-11T10:25:24;102361.41;;;10.10;100.00
29505;BME280;16452;54.174;12.092;2023-02-11T10:27:53;102352.88;;;10.04;100.00
29505;BME280;16452;54.174;12.092;2023-02-11T10:30:36;102351.88;;;10.09;100.00
29505;BME280;16452;54.174;12.092;2023-02-11T10:33:42;102350.09;;;10.11;100.00
29505;BME280;16452;54.174;12.092;2023-02-11T10:36:11;102338.97;;;10.05;100.00
29505;BME280;16452;54.174;12.092;2023-02-11T10:38:38;102327.84;;;9.98;100.00
29505;BME280;16452;54.174;12.092;2023-02-11T10:41:04;102342.47;;;10.04;100.00
29505;BME280;16452;54.174;12.092;2023-02-11T10:43:34;102337.13;;;10.10;100.00
29505;BME280;16452;54.174;12.092;2023-02-11T10:46:02;102340.56;;;10.10;100.00
29505;BME280;16452;54.174;12.092;2023-02-11T10:53:44;102354.22;;;10.21;100.00
29505;BME280;16452;54.174;12.092;2023-02-11T10:56:27;102349.59;;;10.33;100.00
29505;BME280;16452;54.174;12.092;2023-02-11T10:59:19;102340.84;;;10.35;100.00
29505;BME280;16452;54.174;12.092;2023-02-11T11:01:52;102345.91;;;10.41;100.00
29505;BME280;16452;54.174;12.092;2023-02-11T11:06:56;102352.88;;;10.41;100.00
29505;BME280;16452;54.174;12.092;2023-02-11T11:09:34;102364.75;;;10.51;100.00
29505;BME280;16452;54.174;12.092;2023-02-11T11:14:58;102356.22;;;10.44;100.00
29505;BME280;16452;54.174;12.092;2023-02-11T11:17:25;102348.53;;;10.40;100.00
29505;BME280;16452;54.174;12.092;2023-02-11T11:20:26;102363.94;;;10.49;100.00
29505;BME280;16452;54.174;12.092;2023-02-11T11:23:19;102369.28;;;10.43;100.00
29505;BME280;16452;54.174;12.092;2023-02-11T11:26:12;102366.47;;;10.18;100.00
29505;BME280;16452;54.174;12.092;2023-02-11T11:28:49;102368.78;;;9.92;100.00
29505;BME280;16452;54.174;12.092;2023-02-11T11:33:54;102361.44;;;10.09;100.00
29505;BME280;16452;54.174;12.092;2023-02-11T11:36:35;102363.44;;;9.98;100.00
29505;BME280;16452;54.174;12.092;2023-02-11T11:39:28;102368.78;;;9.92;100.00
29505;BME280;16452;54.174;12.092;2023-02-11T11:42:29;102362.09;;;9.81;100.00
29505;BME280;16452;54.174;12.092;2023-02-11T11:44:59;102350.97;;;9.75;100.00
29505;BME280;16452;54.174;12.092;2023-02-11T11:47:42;102361.03;;;9.52;100.00
29505;BME280;16452;54.174;12.092;2023-02-11T11:52:59;102368.25;;;9.39;100.00
29505;BME280;16452;54.174;12.092;2023-02-11T11:55:32;102385.41;;;9.49;100.00
29505;BME280;16452;54.174;12.092;2023-02-11T11:57:59;102389.31;;;9.27;100.00
29505;BME280;16452;54.174;12.092;2023-02-11T12:00:49;102407.13;;;9.46;100.00
29505;BME280;16452;54.174;12.092;2023-02-11T12:32:24;102414.03;;;9.47;100.00
29505;BME280;16452;54.174;12.092;2023-02-11T12:38:09;102414.22;;;9.38;100.00
29505;BME280;16452;54.174;12.092;2023-02-11T12:41:08;102393.16;;;9.51;100.00
29505;BME280;16452;54.174;12.092;2023-02-11T12:43:39;102400.84;;;9.55;100.00
29505;BME280;16452;54.174;12.092;2023-02-11T12:49:11;102378.25;;;9.59;100.00
29505;BME280;16452;54.174;12.092;2023-02-11T12:52:11;102372.75;;;9.72;100.00
29505;BME280;16452;54.174;12.092;2023-02-11T12:55:01;102378.09;;;9.65;100.00
29505;BME280;16452;54.174;12.092;2023-02-11T12:57:31;102399.31;;;9.46;100.00
29505;BME280;16452;54.174;12.092;2023-02-11T13:03:29;102403.28;;;9.63;100.00
29505;BME280;16452;54.174;12.092;2023-02-11T13:06:02;102401.00;;;9.49;100.00
29505;BME280;16452;54.174;12.092;2023-02-11T13:08:56;102395.59;;;9.58;100.00
29505;BME280;16452;54.174;12.092;2023-02-11T13:11:43;102393.88;;;9.57;100.00
29505;BME280;16452;54.174;12.092;2023-02-11T13:14:30;102403.66;;;9.46;100.00
29505;BME280;16452;54.174;12.092;2023-02-11T13:17:21;102398.31;;;9.52;100.00
29505;BME280;16452;54.174;12.092;2023-02-11T13:19:57;102414.19;;;9.40;100.00
29505;BME280;16452;54.174;12.092;2023-02-11T13:22:36;102411.19;;;9.17;100.00
29505;BME280;16452;54.174;12.092;2023-02-11T13:31:01;102433.38;;;9.34;100.00
29505;BME280;16452;54.174;12.092;2023-02-11T13:33:38;102456.78;;;9.34;100.00
29505;BME280;16452;54.174;12.092;2023-02-11T13:38:33;102458.50;;;9.35;100.00
29505;BME280;16452;54.174;12.092;2023-02-11T13:41:28;102465.94;;;9.54;100.00
29505;BME280;16452;54.174;12.092;2023-02-11T13:44:21;102475.53;;;9.50;100.00
29505;BME280;16452;54.174;12.092;2023-02-11T13:46:52;102460.22;;;9.36;100.00
29505;BME280;16452;54.174;12.092;2023-02-11T13:49:38;102470.56;;;9.38;100.00
29505;BME280;16452;54.174;12.092;2023-02-11T13:54:52;102472.28;;;9.40;100.00
29505;BME280;16452;54.174;12.092;2023-02-11T14:02:27;102483.47;;;9.44;100.00
29505;BME280;16452;54.174;12.092;2023-02-11T14:05:25;102503.38;;;9.46;100.00
29505;BME280;16452;54.174;12.092;2023-02-11T14:11:02;102511.31;;;9.39;100.00
29505;BME280;16452;54.174;12.092;2023-02-11T14:14:16;102519.16;;;9.37;100.00
29505;BME280;16452;54.174;12.092;2023-02-11T14:19:37;102521.88;;;9.31;100.00
29505;BME280;16452;54.174;12.092;2023-02-11T14:27:10;102516.94;;;9.16;100.00
29505;BME280;16452;54.174;12.092;2023-02-11T14:33:23;102526.53;;;9.13;100.00
29505;BME280;16452;54.174;12.092;2023-02-11T14:36:07;102543.72;;;9.21;100.00
29505;BME280;16452;54.174;12.092;2023-02-11T14:41:50;102551.03;;;8.98;100.00
29505;BME280;16452;54.174;12.092;2023-02-11T14:44:21;102560.47;;;9.05;100.00
29505;BME280;16452;54.174;12.092;2023-02-11T14:46:50;102553.59;;;9.01;100.00
29505;BME280;16452;54.174;12.092;2023-02-11T14:49:35;102551.69;;;9.12;100.00
29505;BME280;16452;54.174;12.092;2023-02-11T14:52:30;102562.25;;;9.01;100.00
29505;BME280;16452;54.174;12.092;2023-02-11T14:55:19;102567.31;;;9.09;100.00
29505;BME280;16452;54.174;12.092;2023-02-11T14:58:05;102571.53;;;9.16;100.00
29505;BME280;16452;54.174;12.092;2023-02-11T15:00:31;102577.78;;;9.04;100.00
29505;BME280;16452;54.174;12.092;2023-02-11T15:02:57;102564.88;;;9.00;100.00
29505;BME280;16452;54.174;12.092;2023-02-11T15:05:26;102571.56;;;9.15;100.00